aviador You're here:

KLAF Decoded Metar

LAFAYETTE in IN, USA
Report Time2017-10-23 23:54:00
UTC Time2017-10-24 00:19:58
Flight Rules vfr VFR
Wind250° at 06 kt
W.Decomp.*RWY 23: 5.6 kt HW 2.2 kt RCW
RWY 28: 5.2 kt HW 2.9 kt LCW
W.Rank250° ranks 10
Current wind is below 250° avg. (7.0)
Visibility9999 m
Phenomena:N/A
Clouds:Few 008 Hf
CeilingNone
Temp10°C (ISA -4)
Dew Point10°C (100% RH)
AAT7.9°C
QNH1006 hPa
Density Alt548 ft
Elevation597 ft
Report Wrong Elevation
Raw Report
KLAF 232354Z 25006KT 10SM FEW008 10/10 A2970 RMK AO2 SLP056 60034
T01000100 10133 20100 51004=

Extra information for KLAF:More info

Metar Taf Metar & Taf Last 4 Metars F.Rules Stats Wind Profile Meteogram Temp Stats Airport Information Weather charts Add Link Nearby VenuesMetar ALERT Operation Metar Decoded Social comments

AIRNAV info for KLAF